Time;durP1;ratioP1;P1;durP2;ratioP2;P2;SDS_P1;SDS_P2;PMS_P1;PMS_P2;Temp;Humidity;BMP_temperature;BMP_pressure;BME280_temperature;BME280_humidity;BME280_pressure;Samples;Min_cycle;Max_cycle;Signal;HPM_P1;HPM_P2
2022/03/15 00:01:10;;;;;;;12.93;7.90;;;;;;;5.23;71.80;100071.00;5011011;28;20041;-77
2022/03/15 00:03:36;;;;;;;8.15;7.10;;;;;;;5.26;71.91;100070.63;4993580;28;20791;-78
2022/03/15 00:06:02;;;;;;;9.55;6.90;;;;;;;5.18;72.26;100073.38;5014146;28;20026;-78
2022/03/15 00:08:28;;;;;;;8.57;6.60;;;;;;;5.24;72.21;100077.94;5009586;28;20080;-78
2022/03/15 00:10:57;;;;;;;7.93;5.97;;;;;;;5.20;72.37;100079.28;5012140;28;20034;-78
2022/03/15 00:13:26;;;;;;;11.63;6.38;;;;;;;5.24;72.30;100093.81;5009330;28;20440;-78
2022/03/15 00:15:52;;;;;;;10.25;6.28;;;;;;;5.21;72.28;100080.94;5011729;28;20037;-78
2022/03/15 00:18:20;;;;;;;8.40;6.30;;;;;;;5.14;72.16;100072.91;4990499;28;20096;-78
2022/03/15 00:20:45;;;;;;;8.63;5.88;;;;;;;5.17;72.42;100083.16;4993759;28;20041;-78
2022/03/15 00:23:11;;;;;;;9.70;6.10;;;;;;;5.18;72.22;100092.72;4994265;28;20034;-78
2022/03/15 00:25:36;;;;;;;6.65;5.82;;;;;;;5.23;72.37;100095.66;4992712;28;20030;-78
2022/03/15 00:28:02;;;;;;;8.75;6.25;;;;;;;5.18;72.36;100095.38;5009586;28;20125;-78
2022/03/15 00:30:27;;;;;;;14.68;6.38;;;;;;;5.17;71.97;100088.44;4994399;28;20083;-78
2022/03/15 00:32:53;;;;;;;10.57;5.95;;;;;;;5.22;72.61;100104.56;4993072;28;20149;-78
2022/03/15 00:35:19;;;;;;;7.20;5.25;;;;;;;5.16;72.35;100085.97;5010650;28;20120;-79
2022/03/15 00:37:46;;;;;;;7.38;6.10;;;;;;;5.13;72.07;100086.34;4991536;28;20026;-78
2022/03/15 00:40:13;;;;;;;7.95;6.22;;;;;;;5.14;71.78;100094.09;5010792;28;20029;-78
2022/03/15 00:42:39;;;;;;;8.63;6.00;;;;;;;5.18;71.93;100095.38;5011364;28;20397;-78
2022/03/15 00:45:06;;;;;;;9.43;6.05;;;;;;;5.17;71.66;100098.19;4995140;28;20026;-78
2022/03/15 00:47:32;;;;;;;9.88;6.15;;;;;;;5.08;71.71;100086.06;5009835;28;20036;-78
2022/03/15 00:49:57;;;;;;;6.60;5.60;;;;;;;5.08;71.72;100088.72;5005722;28;20482;-77
2022/03/15 00:52:22;;;;;;;8.52;5.97;;;;;;;5.12;71.90;100089.97;4979335;28;20401;-78
2022/03/15 00:54:48;;;;;;;8.30;5.85;;;;;;;5.06;72.14;100088.06;5012432;28;20014;-78
2022/03/15 00:57:13;;;;;;;6.70;5.00;;;;;;;5.11;71.62;100091.00;5011151;28;20032;-78
2022/03/15 00:59:39;;;;;;;7.15;5.22;;;;;;;5.03;71.59;100089.25;4988068;28;20459;-78
2022/03/15 01:02:04;;;;;;;7.25;5.65;;;;;;;5.09;71.76;100098.28;4992368;28;20034;-78
2022/03/15 01:04:29;;;;;;;9.55;6.95;;;;;;;5.03;71.56;100097.19;5009701;28;20039;-78
2022/03/15 01:06:56;;;;;;;5.28;4.78;;;;;;;5.02;71.80;100105.31;4992588;28;20038;-78
2022/03/15 01:09:21;;;;;;;10.95;6.20;;;;;;;5.03;71.71;100099.84;5011946;28;20061;-78
2022/03/15 01:11:47;;;;;;;7.45;5.47;;;;;;;5.00;71.86;100097.53;4978648;28;20425;-78
2022/03/15 01:14:12;;;;;;;11.25;6.72;;;;;;;5.00;71.39;100099.38;4991538;28;20030;-78
2022/03/15 01:16:37;;;;;;;8.90;5.97;;;;;;;4.97;71.60;100097.94;5009810;28;20053;-78
2022/03/15 01:19:06;;;;;;;6.53;5.40;;;;;;;4.89;71.86;100084.75;5010298;28;20092;-78
2022/03/15 01:21:32;;;;;;;8.32;5.57;;;;;;;4.92;71.63;100099.44;5012698;28;20104;-78
2022/03/15 01:23:57;;;;;;;8.90;5.45;;;;;;;4.89;71.83;100089.25;4993348;28;20122;-78
2022/03/15 01:26:22;;;;;;;8.05;5.80;;;;;;;4.94;71.66;100100.91;5011000;28;20042;-78
2022/03/15 01:28:48;;;;;;;8.15;5.50;;;;;;;4.92;71.69;100102.09;5011103;28;20104;-78
2022/03/15 01:31:13;;;;;;;10.07;5.15;;;;;;;4.91;71.88;100093.38;5010150;28;20030;-78
2022/03/15 01:33:38;;;;;;;8.05;5.57;;;;;;;4.79;71.61;100086.03;5010889;28;20037;-78
2022/03/15 01:36:04;;;;;;;8.13;5.82;;;;;;;4.83;71.52;100084.66;5011958;28;20462;-78
2022/03/15 01:38:29;;;;;;;7.10;5.10;;;;;;;4.87;72.29;100091.25;4993570;28;20087;-78
2022/03/15 01:40:55;;;;;;;6.50;5.45;;;;;;;4.86;71.53;100089.59;4993184;28;20042;-78
2022/03/15 01:43:20;;;;;;;8.18;5.00;;;;;;;4.81;71.79;100078.75;4993731;28;20635;-78
2022/03/15 01:45:46;;;;;;;7.05;5.30;;;;;;;4.86;71.75;100079.84;5010560;28;20033;-78
2022/03/15 01:48:11;;;;;;;8.20;5.22;;;;;;;4.82;71.49;100075.09;5008803;28;20038;-77
2022/03/15 01:50:38;;;;;;;10.77;5.35;;;;;;;4.85;71.53;100075.56;5010390;28;20033;-78
2022/03/15 01:53:04;;;;;;;6.78;5.20;;;;;;;4.73;71.34;100060.31;5011756;28;20056;-78
2022/03/15 01:55:30;;;;;;;6.68;5.22;;;;;;;4.69;71.79;100059.03;5007625;28;20022;-78
2022/03/15 01:57:56;;;;;;;6.05;4.60;;;;;;;4.73;71.79;100074.38;5011290;28;20075;-78
2022/03/15 02:00:21;;;;;;;9.27;5.05;;;;;;;4.79;71.29;100080.75;5011165;28;20079;-78
2022/03/15 02:02:47;;;;;;;6.80;5.22;;;;;;;4.71;71.78;100070.25;5008007;28;20033;-78
2022/03/15 02:05:13;;;;;;;6.13;5.00;;;;;;;4.69;71.67;100067.81;5009630;28;20029;-78
2022/03/15 02:07:38;;;;;;;6.70;5.53;;;;;;;4.76;71.82;100067.91;5009638;28;20466;-78
2022/03/15 02:10:06;;;;;;;6.40;4.40;;;;;;;4.76;71.62;100073.19;5010791;28;20101;-78
2022/03/15 02:12:31;;;;;;;9.38;5.68;;;;;;;4.76;71.72;100079.28;4993265;28;20029;-78
2022/03/15 02:15:01;;;;;;;8.15;4.95;;;;;;;4.72;71.74;100078.00;5009938;28;20034;-78
2022/03/15 02:17:27;;;;;;;7.40;5.60;;;;;;;4.66;71.77;100078.72;5010398;28;20026;-78
2022/03/15 02:19:52;;;;;;;8.90;5.88;;;;;;;4.65;71.94;100076.28;5007418;28;20584;-78
2022/03/15 02:22:19;;;;;;;6.72;4.90;;;;;;;4.65;72.07;100073.63;4989932;28;20029;-77
2022/03/15 02:24:44;;;;;;;8.80;5.57;;;;;;;4.63;71.82;100065.06;4991940;28;20053;-78
2022/03/15 02:27:10;;;;;;;7.32;5.18;;;;;;;4.70;72.21;100076.53;4976531;28;20485;-78
2022/03/15 02:29:35;;;;;;;7.47;5.63;;;;;;;4.65;71.83;100076.28;4991993;28;20025;-78
2022/03/15 02:32:00;;;;;;;8.40;5.20;;;;;;;4.63;72.20;100059.78;5005722;28;20038;-78
2022/03/15 02:34:26;;;;;;;9.65;6.38;;;;;;;4.64;72.00;100064.03;5004682;28;20466;-78
2022/03/15 02:36:51;;;;;;;8.52;6.28;;;;;;;4.51;72.08;100054.09;4992586;28;20057;-77
2022/03/15 02:39:16;;;;;;;6.68;5.68;;;;;;;4.57;71.88;100056.84;5007427;28;20092;-78
2022/03/15 02:41:42;;;;;;;8.27;5.75;;;;;;;4.61;72.06;100062.56;5010072;28;20034;-78
2022/03/15 02:44:08;;;;;;;9.13;6.22;;;;;;;4.62;72.40;100069.53;5007739;28;20077;-77
2022/03/15 02:46:34;;;;;;;6.25;5.10;;;;;;;4.63;72.52;100057.13;5010391;28;20037;-78
2022/03/15 02:49:00;;;;;;;7.38;5.20;;;;;;;4.51;72.36;100036.41;5008024;28;20053;-78
2022/03/15 02:51:26;;;;;;;11.18;5.70;;;;;;;4.61;72.37;100048.56;5009370;28;20508;-78
2022/03/15 02:53:54;;;;;;;7.25;5.53;;;;;;;4.60;72.22;100049.53;5006957;28;20030;-78
2022/03/15 02:56:21;;;;;;;7.43;5.78;;;;;;;4.53;72.27;100045.00;5008212;28;20065;-78
2022/03/15 02:58:46;;;;;;;8.00;5.72;;;;;;;4.60;72.09;100050.38;5006500;28;20512;-78
2022/03/15 03:01:12;;;;;;;7.00;5.28;;;;;;;4.60;72.72;100053.03;5003117;28;20026;-78
2022/03/15 03:03:37;;;;;;;6.50;5.45;;;;;;;4.57;72.25;100042.78;5010482;28;20559;-78
2022/03/15 03:06:04;;;;;;;8.13;5.30;;;;;;;4.58;72.37;100052.38;5005260;28;20565;-78
2022/03/15 03:08:30;;;;;;;9.52;5.18;;;;;;;4.59;72.22;100046.06;5004655;28;20030;-78
2022/03/15 03:10:57;;;;;;;8.50;5.45;;;;;;;4.56;72.07;100047.25;5009594;28;20033;-78
2022/03/15 03:13:26;;;;;;;8.35;5.13;;;;;;;4.60;72.43;100047.72;5007972;28;20057;-77
2022/03/15 03:15:56;;;;;;;7.95;5.53;;;;;;;4.52;72.08;100034.59;5007581;28;20528;-78
2022/03/15 03:18:22;;;;;;;6.53;4.88;;;;;;;4.55;72.19;100042.97;5009865;28;20474;-78
2022/03/15 03:20:48;;;;;;;6.68;4.85;;;;;;;4.50;72.21;100036.56;5010927;28;20112;-77
2022/03/15 03:23:14;;;;;;;10.68;5.38;;;;;;;4.48;71.73;100030.66;5009502;28;20557;-77
2022/03/15 03:25:40;;;;;;;6.82;5.38;;;;;;;4.52;72.45;100040.69;4991662;28;20066;-78
2022/03/15 03:28:07;;;;;;;6.75;4.95;;;;;;;4.49;72.02;100032.31;4990513;28;20037;-77
2022/03/15 03:30:36;;;;;;;8.55;5.65;;;;;;;4.49;71.86;100029.66;4974498;28;20454;-78
2022/03/15 03:33:01;;;;;;;6.13;4.80;;;;;;;4.43;72.43;100017.19;4993651;28;20030;-78
2022/03/15 03:35:27;;;;;;;8.65;5.68;;;;;;;4.53;72.11;100036.22;5009336;28;20103;-78
2022/03/15 03:37:52;;;;;;;6.60;5.18;;;;;;;4.50;72.31;100026.84;4991036;28;20063;-78
2022/03/15 03:40:17;;;;;;;6.82;5.00;;;;;;;4.44;72.19;100024.09;4991627;28;20038;-78
2022/03/15 03:42:43;;;;;;;11.85;4.97;;;;;;;4.46;72.20;100016.81;4993173;28;20038;-78
2022/03/15 03:45:09;;;;;;;5.35;4.82;;;;;;;4.50;72.11;100029.47;4976655;28;20385;-77
2022/03/15 03:47:34;;;;;;;7.05;5.55;;;;;;;4.47;72.17;100032.50;5010243;28;20481;-78
2022/03/15 03:49:59;;;;;;;5.00;4.35;;;;;;;4.44;71.94;100027.56;5006321;28;20026;-78
2022/03/15 03:52:25;;;;;;;6.28;5.38;;;;;;;4.37;72.23;100008.13;5009322;28;20069;-78
2022/03/15 03:54:50;;;;;;;9.27;4.95;;;;;;;4.37;72.18;100010.78;5011863;28;20026;-77
2022/03/15 03:57:16;;;;;;;11.55;7.55;;;;;;;4.38;72.25;100007.16;5011883;28;20044;-77
2022/03/15 03:59:41;;;;;;;5.35;4.50;;;;;;;4.44;71.95;100021.44;5011957;28;20029;-78
2022/03/15 04:02:07;;;;;;;6.68;5.13;;;;;;;4.43;72.19;100020.63;5012120;28;20018;-78
2022/03/15 04:04:32;;;;;;;8.65;5.53;;;;;;;4.42;71.99;100018.16;5008844;28;20037;-78
2022/03/15 04:06:57;;;;;;;6.88;4.78;;;;;;;4.41;71.89;100019.97;5010801;28;20057;-78
2022/03/15 04:09:23;;;;;;;8.73;5.70;;;;;;;4.42;72.00;100015.53;4994376;28;20095;-78
2022/03/15 04:11:49;;;;;;;6.53;4.80;;;;;;;4.39;72.24;100016.69;4993164;28;20033;-78
2022/03/15 04:14:15;;;;;;;9.05;5.70;;;;;;;4.35;72.27;100020.72;5011960;28;20068;-78
2022/03/15 04:16:41;;;;;;;8.85;4.97;;;;;;;4.34;71.71;100011.16;5011475;28;20493;-78
2022/03/15 04:19:07;;;;;;;8.93;5.53;;;;;;;4.37;71.73;100024.00;5011048;28;20033;-78
2022/03/15 04:21:33;;;;;;;6.13;5.13;;;;;;;4.37;72.14;100031.91;4995539;28;20025;-78
2022/03/15 04:23:58;;;;;;;8.20;5.43;;;;;;;4.33;72.26;100025.34;5011015;28;20116;-78
2022/03/15 04:26:25;;;;;;;6.57;5.60;;;;;;;4.31;71.97;100011.50;5013291;28;20021;-78
2022/03/15 04:28:51;;;;;;;5.95;5.15;;;;;;;4.36;72.33;100016.25;5011305;28;20073;-77
2022/03/15 04:31:16;;;;;;;6.95;5.25;;;;;;;4.32;72.13;100013.16;5012319;28;20048;-78
2022/03/15 04:33:42;;;;;;;6.40;5.57;;;;;;;4.37;72.34;100015.22;5013481;28;20033;-77
2022/03/15 04:36:07;;;;;;;5.82;5.00;;;;;;;4.27;72.03;100010.22;5009603;28;20460;-78
2022/03/15 04:38:33;;;;;;;8.68;5.15;;;;;;;4.27;71.80;100002.28;4992824;28;20037;-78
2022/03/15 04:40:59;;;;;;;8.13;5.30;;;;;;;4.27;71.69;100004.94;5011722;28;20030;-77
2022/03/15 04:43:25;;;;;;;9.07;5.57;;;;;;;4.28;72.23;100001.28;4979022;28;20053;-78
2022/03/15 04:45:51;;;;;;;7.72;5.57;;;;;;;4.34;72.18;100008.50;5009382;28;20033;-78
2022/03/15 04:48:18;;;;;;;6.65;4.95;;;;;;;4.26;72.05;99997.19;5010365;28;20050;-78
2022/03/15 04:50:43;;;;;;;7.35;5.43;;;;;;;4.31;72.42;100008.84;5008141;28;20069;-78
2022/03/15 04:53:09;;;;;;;9.02;5.15;;;;;;;4.25;72.52;99998.19;5011016;28;20026;-78
2022/03/15 04:55:34;;;;;;;6.85;5.00;;;;;;;4.22;72.13;99987.97;4994714;28;20072;-78
2022/03/15 04:57:59;;;;;;;6.60;4.95;;;;;;;4.21;72.46;99987.16;4977182;28;20034;-78
2022/03/15 05:00:25;;;;;;;9.75;5.63;;;;;;;4.31;72.31;100002.75;5010541;28;20153;-78
2022/03/15 05:02:50;;;;;;;8.07;5.55;;;;;;;4.17;72.33;99982.41;5012737;28;20112;-78
2022/03/15 05:05:15;;;;;;;7.78;5.50;;;;;;;4.21;72.33;100008.31;5010978;28;20404;-78
2022/03/15 05:07:41;;;;;;;7.32;4.72;;;;;;;4.28;72.24;100017.13;5011150;28;20533;-78
2022/03/15 05:12:51;;;;;;;8.23;5.82;;;;;;;4.23;72.43;100001.00;5007245;28;20430;-78
2022/03/15 05:15:17;;;;;;;7.88;5.45;;;;;;;4.27;72.42;100012.88;4992296;28;20042;-78
2022/03/15 05:17:43;;;;;;;6.50;4.38;;;;;;;4.28;72.44;100008.41;5009350;28;20551;-78
2022/03/15 05:20:10;;;;;;;6.85;4.95;;;;;;;4.27;72.75;100014.69;5012468;28;20108;-78
2022/03/15 05:22:35;;;;;;;10.85;5.55;;;;;;;4.25;72.55;100004.28;5005248;28;20105;-78
2022/03/15 05:25:02;;;;;;;8.57;4.75;;;;;;;4.25;73.08;100000.81;5010165;28;20037;-78
2022/03/15 05:27:27;;;;;;;8.82;5.22;;;;;;;4.24;72.74;100000.00;5006747;28;20022;-78
2022/03/15 05:29:53;;;;;;;7.50;5.85;;;;;;;4.24;72.87;100001.81;5010625;28;20037;-78
2022/03/15 05:32:19;;;;;;;7.78;5.38;;;;;;;4.22;72.78;99998.53;5011921;28;20112;-78
2022/03/15 05:34:44;;;;;;;8.52;5.47;;;;;;;4.22;72.45;100002.00;4994143;28;20068;-78
2022/03/15 05:37:09;;;;;;;6.25;5.45;;;;;;;4.21;72.48;100005.66;4990886;28;20033;-78
2022/03/15 05:39:35;;;;;;;7.28;5.45;;;;;;;4.15;72.51;99987.84;5010078;28;20044;-77
2022/03/15 05:42:01;;;;;;;9.15;5.68;;;;;;;4.13;72.79;99997.00;5008787;28;20033;-78
2022/03/15 05:44:27;;;;;;;8.52;5.15;;;;;;;4.20;72.86;100011.09;5006505;28;20033;-78
2022/03/15 05:46:53;;;;;;;10.40;6.00;;;;;;;4.19;73.80;100020.03;5007030;28;20477;-78
2022/03/15 05:49:18;;;;;;;9.98;6.60;;;;;;;4.14;73.91;99999.44;5011944;28;20030;-78
2022/03/15 05:51:44;;;;;;;12.45;6.40;;;;;;;4.18;73.81;100006.00;5012492;28;20025;-78
2022/03/15 05:54:09;;;;;;;14.45;6.50;;;;;;;4.16;73.68;99997.44;5012639;28;20033;-78
2022/03/15 05:56:35;;;;;;;10.65;5.95;;;;;;;4.17;73.36;100007.00;5000419;28;20088;-78
2022/03/15 05:59:01;;;;;;;8.85;5.80;;;;;;;4.13;73.48;99992.50;5010753;28;20109;-78
2022/03/15 06:01:26;;;;;;;10.30;5.63;;;;;;;4.19;73.47;100007.66;4989712;28;20041;-78
2022/03/15 06:03:53;;;;;;;8.02;5.07;;;;;;;4.19;73.69;100002.38;5010429;28;20088;-77
2022/03/15 06:06:21;;;;;;;6.40;5.50;;;;;;;4.16;73.65;100002.72;5010230;28;20489;-78
2022/03/15 06:08:46;;;;;;;12.70;5.97;;;;;;;4.21;73.57;100015.41;5008015;28;20022;-78
2022/03/15 06:11:13;;;;;;;11.05;6.47;;;;;;;4.22;73.73;100009.94;5009773;28;20474;-78
2022/03/15 06:13:38;;;;;;;9.40;6.35;;;;;;;4.18;73.71;100013.94;5009391;28;20069;-78
2022/03/15 06:16:04;;;;;;;10.23;5.25;;;;;;;4.24;73.75;100015.03;4994060;28;20448;-78
2022/03/15 06:18:29;;;;;;;9.88;5.43;;;;;;;4.23;73.65;100013.41;5010000;28;20041;-78
2022/03/15 06:20:54;;;;;;;7.50;6.18;;;;;;;4.17;73.39;100009.63;5010013;28;20060;-78
2022/03/15 06:23:22;;;;;;;8.30;5.13;;;;;;;4.08;73.66;99986.97;5010590;28;20026;-78
2022/03/15 06:25:47;;;;;;;11.35;6.15;;;;;;;4.16;73.52;100002.72;5009324;28;20026;-78
2022/03/15 06:28:13;;;;;;;9.10;6.00;;;;;;;4.21;73.54;100007.47;5008219;28;20478;-78
2022/03/15 06:30:38;;;;;;;6.88;5.88;;;;;;;4.21;73.62;100008.31;4975427;28;20516;-78
2022/03/15 06:33:03;;;;;;;9.85;6.25;;;;;;;4.23;73.24;100011.59;5009772;28;20030;-78
2022/03/15 06:35:29;;;;;;;8.98;6.28;;;;;;;4.31;73.82;100016.78;4992374;28;20512;-78
2022/03/15 06:37:55;;;;;;;5.55;5.03;;;;;;;4.26;73.90;100010.41;5004602;28;20026;-78
2022/03/15 06:40:23;;;;;;;8.35;5.03;;;;;;;4.35;74.01;100014.59;5003955;28;20056;-78
2022/03/15 06:42:48;;;;;;;6.55;5.25;;;;;;;4.34;73.87;100010.31;5009056;28;20156;-78
2022/03/15 06:45:13;;;;;;;7.65;5.22;;;;;;;4.37;73.48;100016.06;5007689;28;20530;-78
2022/03/15 06:47:39;;;;;;;7.00;5.20;;;;;;;4.37;73.43;100016.06;5004896;28;20030;-78
2022/03/15 06:50:08;;;;;;;7.55;6.05;;;;;;;4.43;73.54;100015.34;5011398;28;20025;-78
2022/03/15 06:52:34;;;;;;;5.45;4.75;;;;;;;4.41;73.72;100013.91;5007599;28;20033;-78
2022/03/15 06:54:59;;;;;;;6.82;6.13;;;;;;;4.47;73.57;100014.00;5008149;28;20819;-78
2022/03/15 06:57:25;;;;;;;6.72;6.03;;;;;;;4.49;73.35;100019.91;5010646;28;20499;-78
2022/03/15 06:59:50;;;;;;;10.13;5.88;;;;;;;4.42;73.76;99997.84;4992832;28;20033;-78
2022/03/15 07:02:15;;;;;;;9.00;5.82;;;;;;;4.49;73.77;100005.88;4992686;28;20041;-78
2022/03/15 07:04:41;;;;;;;6.45;5.72;;;;;;;4.53;73.69;100007.16;4992291;28;20065;-78
2022/03/15 07:07:07;;;;;;;8.38;6.07;;;;;;;4.59;73.77;100013.56;4986833;28;20121;-78
2022/03/15 07:09:33;;;;;;;8.40;5.53;;;;;;;4.60;73.61;100012.53;5009115;28;20504;-78
2022/03/15 07:11:58;;;;;;;7.57;6.05;;;;;;;4.57;73.54;99996.03;5004765;28;20034;-78
2022/03/15 07:14:23;;;;;;;8.27;6.03;;;;;;;4.62;73.44;100005.25;5008544;28;20030;-78
2022/03/15 07:16:48;;;;;;;7.70;5.65;;;;;;;4.71;73.85;100012.91;4992322;28;20029;-78
2022/03/15 07:19:14;;;;;;;9.85;7.07;;;;;;;4.74;73.55;100012.53;4989803;28;20221;-78
2022/03/15 07:21:39;;;;;;;9.43;6.65;;;;;;;4.78;73.58;100010.34;5007793;28;20389;-78
2022/03/15 07:24:05;;;;;;;9.82;6.70;;;;;;;4.78;73.57;100003.25;5005605;28;20038;-78
2022/03/15 07:26:31;;;;;;;9.70;6.60;;;;;;;4.76;73.35;99996.50;5005002;28;20037;-78
2022/03/15 07:28:57;;;;;;;7.53;6.20;;;;;;;4.80;73.70;100005.69;4975637;28;20444;-78
2022/03/15 07:31:22;;;;;;;7.93;6.50;;;;;;;4.83;73.60;99990.28;4992332;28;20133;-78
2022/03/15 07:33:48;;;;;;;9.13;5.70;;;;;;;4.94;73.22;99999.56;5012891;28;20044;-78
2022/03/15 07:36:14;;;;;;;9.55;6.68;;;;;;;4.96;73.24;99992.25;4993320;28;20488;-78
2022/03/15 07:38:39;;;;;;;7.22;6.28;;;;;;;4.96;73.07;100001.03;4994160;28;20374;-78
2022/03/15 07:41:05;;;;;;;11.85;6.50;;;;;;;5.04;73.76;99992.19;5012244;28;20111;-78
2022/03/15 07:43:30;;;;;;;10.13;7.18;;;;;;;5.05;73.85;99996.47;5014588;28;20070;-77
2022/03/15 07:45:56;;;;;;;7.50;6.57;;;;;;;5.10;73.45;99999.38;5009862;28;20034;-78
2022/03/15 07:48:21;;;;;;;8.48;6.70;;;;;;;5.13;74.24;99997.16;5008526;28;20087;-78
2022/03/15 07:50:49;;;;;;;7.70;5.57;;;;;;;5.10;74.08;99979.03;5010056;28;20747;-78
2022/03/15 07:53:14;;;;;;;12.50;6.90;;;;;;;5.14;73.84;99982.94;5008505;28;20022;-78
2022/03/15 07:55:40;;;;;;;10.55;6.82;;;;;;;5.19;74.16;99983.22;4988689;28;20384;-77
2022/03/15 07:58:05;;;;;;;11.32;6.63;;;;;;;5.22;73.82;99977.53;4993349;28;20026;-77
2022/03/15 08:00:31;;;;;;;8.73;6.18;;;;;;;5.32;74.13;99993.13;5011975;28;20110;-78
2022/03/15 08:02:56;;;;;;;7.45;6.45;;;;;;;5.31;73.70;99976.41;5008275;28;20034;-78
2022/03/15 08:05:22;;;;;;;7.72;5.82;;;;;;;5.43;74.12;99994.47;5011662;28;20504;-78
2022/03/15 08:07:48;;;;;;;10.48;8.32;;;;;;;5.48;74.13;99992.91;5011349;28;20033;-78
2022/03/15 08:10:13;;;;;;;7.40;6.32;;;;;;;5.49;73.50;99989.25;5011006;28;20034;-77
2022/03/15 08:12:40;;;;;;;8.57;6.68;;;;;;;5.53;74.54;99985.22;5001699;28;20033;-78
2022/03/15 08:15:07;;;;;;;10.75;6.78;;;;;;;5.60;74.43;99986.09;5008807;28;20493;-77
2022/03/15 08:17:37;;;;;;;9.00;6.53;;;;;;;5.58;74.92;99979.34;5002693;28;20026;-78
2022/03/15 08:20:03;;;;;;;8.95;6.35;;;;;;;5.62;74.50;99980.59;5005049;28;20052;-78
2022/03/15 08:22:30;;;;;;;10.82;7.38;;;;;;;5.60;75.63;99967.56;5004971;28;20313;-77
2022/03/15 08:24:56;;;;;;;7.80;6.65;;;;;;;5.70;75.20;99973.34;5005110;28;20026;-78
2022/03/15 08:27:22;;;;;;;11.18;6.75;;;;;;;5.74;74.92;99968.50;5008631;28;20057;-80
2022/03/15 08:29:47;;;;;;;9.20;6.90;;;;;;;5.78;75.61;99965.31;5020897;28;20030;-80
2022/03/15 08:32:13;;;;;;;9.90;7.43;;;;;;;5.82;75.73;99960.44;5014613;28;20021;-80
2022/03/15 08:34:39;;;;;;;11.55;7.05;;;;;;;5.86;75.00;99959.88;4993429;28;20022;-80
2022/03/15 08:37:05;;;;;;;11.75;6.72;;;;;;;5.95;75.91;99969.34;5010307;28;20116;-80
2022/03/15 08:39:31;;;;;;;9.25;7.40;;;;;;;6.00;75.45;99966.13;5011704;28;20041;-80
2022/03/15 08:41:57;;;;;;;12.80;6.57;;;;;;;6.00;75.18;99963.47;5004623;28;20030;-80
2022/03/15 08:44:23;;;;;;;13.38;7.68;;;;;;;6.06;74.73;99968.00;5007969;28;20033;-80
2022/03/15 08:46:49;;;;;;;8.57;7.03;;;;;;;6.11;74.45;99964.78;5007569;28;20048;-79
2022/03/15 08:49:17;;;;;;;11.38;6.55;;;;;;;6.14;75.46;99967.84;5002949;28;20371;-79
2022/03/15 08:51:42;;;;;;;7.28;5.82;;;;;;;6.17;74.33;99954.22;5009940;28;20405;-80
2022/03/15 08:54:08;;;;;;;10.23;6.82;;;;;;;6.17;74.40;99951.56;5004776;28;20036;-80
2022/03/15 08:56:35;;;;;;;8.65;6.25;;;;;;;6.26;74.35;99952.25;5008535;28;20038;-80
2022/03/15 08:59:00;;;;;;;12.18;8.05;;;;;;;6.26;74.32;99939.00;5006295;28;20044;-80
2022/03/15 09:01:26;;;;;;;10.02;6.20;;;;;;;6.28;73.47;99942.28;4977376;28;20033;-80
2022/03/15 09:03:51;;;;;;;9.25;6.28;;;;;;;6.32;73.29;99938.22;4990050;28;20041;-80
2022/03/15 09:06:16;;;;;;;9.35;6.38;;;;;;;6.42;73.22;99941.34;4991854;28;20124;-80
2022/03/15 09:08:42;;;;;;;9.93;6.60;;;;;;;6.38;73.46;99926.81;5006278;28;20034;-80
2022/03/15 09:11:08;;;;;;;14.13;6.32;;;;;;;6.45;72.98;99933.81;5008492;28;20040;-80
2022/03/15 09:13:34;;;;;;;11.10;6.50;;;;;;;6.54;72.93;99930.00;4991879;28;20038;-80
2022/03/15 09:15:59;;;;;;;9.52;6.57;;;;;;;6.56;73.13;99921.84;5005187;28;20092;-80
2022/03/15 09:18:26;;;;;;;8.90;6.55;;;;;;;6.58;73.14;99911.84;4986652;28;20034;-80
2022/03/15 09:20:52;;;;;;;8.45;6.28;;;;;;;6.62;72.72;99918.38;5004687;28;20440;-80
2022/03/15 09:23:18;;;;;;;11.93;7.05;;;;;;;6.60;73.02;99904.50;5003591;28;20030;-80
2022/03/15 09:25:43;;;;;;;8.80;6.20;;;;;;;6.65;72.77;99912.69;4988345;28;20030;-80
2022/03/15 09:28:10;;;;;;;8.32;6.65;;;;;;;6.69;72.98;99904.16;4985156;28;20029;-80
2022/03/15 09:30:36;;;;;;;9.48;6.85;;;;;;;6.79;72.55;99903.78;5010646;28;20029;-80
2022/03/15 09:33:02;;;;;;;9.80;6.85;;;;;;;6.75;72.08;99886.63;5008839;28;20042;-80
2022/03/15 09:35:27;;;;;;;11.60;6.57;;;;;;;6.87;72.22;99906.28;4999932;28;20034;-80
2022/03/15 09:37:53;;;;;;;9.82;6.93;;;;;;;6.90;72.01;99903.22;5005638;28;20076;-80
2022/03/15 09:40:25;;;;;;;12.32;7.07;;;;;;;6.90;72.05;99895.28;5005905;28;20088;-80
2022/03/15 09:42:56;;;;;;;9.18;6.78;;;;;;;6.92;72.97;99893.22;5001039;28;20033;-81
2022/03/15 09:45:23;;;;;;;10.30;6.50;;;;;;;6.95;72.47;99887.50;5002878;28;20073;-80
2022/03/15 09:47:53;;;;;;;7.35;6.03;;;;;;;7.05;72.06;99901.22;4988963;28;20494;-80
2022/03/15 09:50:20;;;;;;;11.13;7.10;;;;;;;7.08;72.11;99886.72;5007279;28;20501;-81
2022/03/15 09:52:47;;;;;;;8.68;5.90;;;;;;;7.06;71.69;99875.47;5003676;28;20042;-80
2022/03/15 09:55:12;;;;;;;9.18;6.13;;;;;;;7.15;71.54;99887.56;5008233;28;20370;-80
2022/03/15 09:57:39;;;;;;;11.15;6.82;;;;;;;7.20;71.93;99871.84;5007397;28;20091;-80
2022/03/15 10:00:05;;;;;;;9.40;6.85;;;;;;;7.23;72.00;99877.56;5010714;28;20045;-80
2022/03/15 10:02:33;;;;;;;11.48;7.78;;;;;;;7.25;71.97;99878.19;5009209;28;20034;-80
2022/03/15 10:04:58;;;;;;;10.57;6.82;;;;;;;7.17;71.60;99862.44;5003925;28;20055;-80
2022/03/15 10:07:23;;;;;;;12.95;7.68;;;;;;;7.32;72.08;99880.84;5007792;28;20503;-81
2022/03/15 10:09:51;;;;;;;9.70;5.82;;;;;;;7.30;71.46;99865.13;4993399;28;20032;-80
2022/03/15 10:12:18;;;;;;;10.45;6.85;;;;;;;7.38;71.44;99867.56;5008950;28;20030;-80
2022/03/15 10:14:45;;;;;;;8.32;6.05;;;;;;;7.39;71.18;99860.44;4992590;28;20481;-80
2022/03/15 10:17:12;;;;;;;7.10;6.05;;;;;;;7.32;70.92;99839.19;5004144;28;20057;-80
2022/03/15 10:19:38;;;;;;;6.10;5.47;;;;;;;7.43;71.59;99840.41;5006822;28;20117;-79
2022/03/15 10:22:08;;;;;;;8.02;6.55;;;;;;;7.48;71.40;99830.00;5008583;28;20124;-80
2022/03/15 10:24:38;;;;;;;10.18;6.47;;;;;;;7.55;71.05;99836.97;4992044;28;20066;-80
2022/03/15 10:27:06;;;;;;;10.75;6.72;;;;;;;7.55;70.90;99828.16;5008330;28;20037;-80
2022/03/15 10:29:33;;;;;;;9.60;6.90;;;;;;;7.57;71.25;99824.28;5008402;28;20041;-80
2022/03/15 10:31:59;;;;;;;8.35;6.22;;;;;;;7.55;70.96;99817.53;5004938;28;20373;-80
2022/03/15 10:34:27;;;;;;;8.60;6.15;;;;;;;7.66;71.44;99813.44;4993787;28;20080;-80
2022/03/15 10:36:54;;;;;;;10.10;7.18;;;;;;;7.70;71.20;99819.97;5010361;28;20061;-80
2022/03/15 10:39:20;;;;;;;9.80;6.55;;;;;;;7.72;71.12;99810.78;5006357;28;20104;-80
2022/03/15 10:41:47;;;;;;;7.55;5.57;;;;;;;7.65;70.80;99801.16;5008744;28;20030;-80
2022/03/15 10:44:17;;;;;;;8.07;6.32;;;;;;;7.77;71.17;99810.16;5004952;28;20036;-80
2022/03/15 10:46:43;;;;;;;8.27;6.00;;;;;;;7.79;70.17;99802.81;5005966;28;20034;-80
2022/03/15 10:49:08;;;;;;;10.82;6.82;;;;;;;7.80;70.66;99805.25;5010104;28;20037;-80
2022/03/15 10:51:36;;;;;;;9.57;6.22;;;;;;;7.76;71.09;99796.06;5006563;28;20053;-80
2022/03/15 10:54:04;;;;;;;8.93;6.70;;;;;;;7.84;70.28;99801.16;5009905;28;20021;-80
2022/03/15 10:56:30;;;;;;;8.68;6.22;;;;;;;7.87;70.25;99797.25;5009251;28;20113;-80
2022/03/15 10:59:02;;;;;;;10.00;6.97;;;;;;;7.82;70.12;99786.47;5010564;28;20038;-80
2022/03/15 11:01:29;;;;;;;8.73;6.75;;;;;;;7.83;70.93;99780.91;5002677;28;20030;-80
2022/03/15 11:04:03;;;;;;;10.95;6.55;;;;;;;7.90;70.41;99783.56;5025475;28;20370;-80
2022/03/15 11:06:39;;;;;;;10.18;6.28;;;;;;;7.92;69.93;99785.00;5010381;28;20068;-80
2022/03/15 11:09:24;;;;;;;8.55;6.55;;;;;;;7.92;71.08;99777.03;5011675;28;20041;-80
2022/03/15 11:12:05;;;;;;;8.73;6.60;;;;;;;7.90;70.19;99751.66;5012974;28;20481;-80
2022/03/15 11:14:59;;;;;;;7.40;6.15;;;;;;;7.91;70.71;99759.44;4982227;28;20482;-80
2022/03/15 11:17:26;;;;;;;10.55;6.40;;;;;;;7.98;70.79;99757.56;5006440;28;20405;-80
2022/03/15 11:19:57;;;;;;;10.38;6.70;;;;;;;7.98;70.79;99756.75;5011380;28;20487;-80
2022/03/15 11:22:31;;;;;;;12.93;7.10;;;;;;;7.99;70.54;99753.06;5012559;28;20029;-80
2022/03/15 11:25:08;;;;;;;11.48;6.80;;;;;;;8.05;71.31;99749.56;4992478;28;20060;-80
2022/03/15 11:27:37;;;;;;;9.10;6.45;;;;;;;7.99;70.34;99731.81;5011471;28;20038;-80
2022/03/15 11:30:06;;;;;;;9.35;6.40;;;;;;;8.06;70.06;99740.59;4998866;28;20084;-80
2022/03/15 11:32:35;;;;;;;10.23;7.05;;;;;;;8.07;70.52;99728.91;5014391;28;20519;-80